sensor_id;sensor_type;location;lat;lon;timestamp;P1;durP1;ratioP1;P2;durP2;ratioP2
19733;SDS011;10018;51.230;7.860;2023-04-29T00:02:19;9.43;;;6.67;;
19733;SDS011;10018;51.230;7.860;2023-04-29T00:04:45;9.00;;;6.23;;
19733;SDS011;10018;51.230;7.860;2023-04-29T00:07:11;8.07;;;4.80;;
19733;SDS011;10018;51.230;7.860;2023-04-29T00:09:39;7.13;;;4.83;;
19733;SDS011;10018;51.230;7.860;2023-04-29T00:12:05;8.97;;;5.60;;
19733;SDS011;10018;51.230;7.860;2023-04-29T00:14:30;7.63;;;5.20;;
19733;SDS011;10018;51.230;7.860;2023-04-29T00:16:56;9.50;;;5.87;;
19733;SDS011;10018;51.230;7.860;2023-04-29T00:19:22;9.97;;;7.00;;
19733;SDS011;10018;51.230;7.860;2023-04-29T00:21:47;12.37;;;8.20;;
19733;SDS011;10018;51.230;7.860;2023-04-29T00:24:13;12.67;;;8.17;;
19733;SDS011;10018;51.230;7.860;2023-04-29T00:26:39;13.50;;;9.43;;
19733;SDS011;10018;51.230;7.860;2023-04-29T00:29:05;13.23;;;9.23;;
19733;SDS011;10018;51.230;7.860;2023-04-29T00:31:30;13.93;;;8.50;;
19733;SDS011;10018;51.230;7.860;2023-04-29T00:33:56;13.90;;;9.60;;
19733;SDS011;10018;51.230;7.860;2023-04-29T00:36:22;15.93;;;11.13;;
19733;SDS011;10018;51.230;7.860;2023-04-29T00:38:47;15.93;;;11.23;;
19733;SDS011;10018;51.230;7.860;2023-04-29T00:41:15;15.33;;;10.27;;
19733;SDS011;10018;51.230;7.860;2023-04-29T00:43:41;16.20;;;11.00;;
19733;SDS011;10018;51.230;7.860;2023-04-29T00:46:06;16.70;;;11.83;;
19733;SDS011;10018;51.230;7.860;2023-04-29T00:48:32;17.47;;;12.60;;
19733;SDS011;10018;51.230;7.860;2023-04-29T00:50:58;17.57;;;12.80;;
19733;SDS011;10018;51.230;7.860;2023-04-29T00:53:24;21.03;;;14.60;;
19733;SDS011;10018;51.230;7.860;2023-04-29T00:55:49;24.33;;;16.63;;
19733;SDS011;10018;51.230;7.860;2023-04-29T00:58:16;26.63;;;17.70;;
19733;SDS011;10018;51.230;7.860;2023-04-29T01:00:46;27.03;;;17.60;;
19733;SDS011;10018;51.230;7.860;2023-04-29T01:03:12;27.33;;;19.27;;
19733;SDS011;10018;51.230;7.860;2023-04-29T01:05:38;29.00;;;18.73;;
19733;SDS011;10018;51.230;7.860;2023-04-29T01:11:04;30.93;;;20.83;;
19733;SDS011;10018;51.230;7.860;2023-04-29T01:13:38;34.63;;;21.47;;
19733;SDS011;10018;51.230;7.860;2023-04-29T01:16:10;31.87;;;19.83;;
19733;SDS011;10018;51.230;7.860;2023-04-29T01:18:45;37.47;;;23.13;;
19733;SDS011;10018;51.230;7.860;2023-04-29T01:21:19;34.70;;;21.53;;
19733;SDS011;10018;51.230;7.860;2023-04-29T01:23:46;34.73;;;21.40;;
19733;SDS011;10018;51.230;7.860;2023-04-29T01:26:17;36.23;;;22.80;;
19733;SDS011;10018;51.230;7.860;2023-04-29T01:29:18;37.93;;;22.97;;
19733;SDS011;10018;51.230;7.860;2023-04-29T01:32:04;35.10;;;21.57;;
19733;SDS011;10018;51.230;7.860;2023-04-29T01:37:27;34.40;;;21.73;;
19733;SDS011;10018;51.230;7.860;2023-04-29T01:42:44;38.90;;;22.90;;
19733;SDS011;10018;51.230;7.860;2023-04-29T01:45:19;33.63;;;21.60;;
19733;SDS011;10018;51.230;7.860;2023-04-29T01:47:46;36.77;;;22.20;;
19733;SDS011;10018;51.230;7.860;2023-04-29T01:50:16;35.90;;;22.47;;
19733;SDS011;10018;51.230;7.860;2023-04-29T01:52:41;37.33;;;21.87;;
19733;SDS011;10018;51.230;7.860;2023-04-29T01:55:07;36.03;;;22.00;;
19733;SDS011;10018;51.230;7.860;2023-04-29T01:57:33;31.80;;;19.97;;
19733;SDS011;10018;51.230;7.860;2023-04-29T01:59:59;31.40;;;20.03;;
19733;SDS011;10018;51.230;7.860;2023-04-29T02:02:25;37.33;;;21.17;;
19733;SDS011;10018;51.230;7.860;2023-04-29T02:04:53;34.43;;;21.20;;
19733;SDS011;10018;51.230;7.860;2023-04-29T02:07:19;38.17;;;22.13;;
19733;SDS011;10018;51.230;7.860;2023-04-29T02:09:45;35.80;;;21.63;;
19733;SDS011;10018;51.230;7.860;2023-04-29T02:12:11;37.63;;;21.57;;
19733;SDS011;10018;51.230;7.860;2023-04-29T02:14:37;34.83;;;21.50;;
19733;SDS011;10018;51.230;7.860;2023-04-29T02:17:02;41.27;;;24.30;;
19733;SDS011;10018;51.230;7.860;2023-04-29T02:19:28;40.27;;;22.40;;
19733;SDS011;10018;51.230;7.860;2023-04-29T02:21:53;40.97;;;23.50;;
19733;SDS011;10018;51.230;7.860;2023-04-29T02:24:19;43.43;;;24.07;;
19733;SDS011;10018;51.230;7.860;2023-04-29T02:26:45;41.53;;;24.13;;
19733;SDS011;10018;51.230;7.860;2023-04-29T02:29:10;41.63;;;24.00;;
19733;SDS011;10018;51.230;7.860;2023-04-29T02:31:36;41.13;;;24.30;;
19733;SDS011;10018;51.230;7.860;2023-04-29T02:34:02;42.63;;;24.33;;
19733;SDS011;10018;51.230;7.860;2023-04-29T02:36:28;39.50;;;23.83;;
19733;SDS011;10018;51.230;7.860;2023-04-29T02:38:54;43.43;;;24.30;;
19733;SDS011;10018;51.230;7.860;2023-04-29T02:41:20;41.20;;;23.77;;
19733;SDS011;10018;51.230;7.860;2023-04-29T02:43:46;39.70;;;24.03;;
19733;SDS011;10018;51.230;7.860;2023-04-29T02:46:15;38.17;;;23.87;;
19733;SDS011;10018;51.230;7.860;2023-04-29T02:48:41;42.13;;;25.20;;
19733;SDS011;10018;51.230;7.860;2023-04-29T02:51:07;41.60;;;23.97;;
19733;SDS011;10018;51.230;7.860;2023-04-29T02:53:34;42.37;;;24.07;;
19733;SDS011;10018;51.230;7.860;2023-04-29T02:56:00;40.43;;;24.43;;
19733;SDS011;10018;51.230;7.860;2023-04-29T02:58:28;40.87;;;24.43;;
19733;SDS011;10018;51.230;7.860;2023-04-29T03:00:54;41.43;;;24.70;;
19733;SDS011;10018;51.230;7.860;2023-04-29T03:03:19;39.33;;;23.37;;
19733;SDS011;10018;51.230;7.860;2023-04-29T03:05:45;41.50;;;23.63;;
19733;SDS011;10018;51.230;7.860;2023-04-29T03:08:10;36.97;;;22.30;;
19733;SDS011;10018;51.230;7.860;2023-04-29T03:10:38;37.30;;;22.27;;
19733;SDS011;10018;51.230;7.860;2023-04-29T03:13:04;35.90;;;21.07;;
19733;SDS011;10018;51.230;7.860;2023-04-29T03:15:29;38.30;;;22.87;;
19733;SDS011;10018;51.230;7.860;2023-04-29T03:17:55;34.77;;;20.30;;
19733;SDS011;10018;51.230;7.860;2023-04-29T03:20:20;34.33;;;21.87;;
19733;SDS011;10018;51.230;7.860;2023-04-29T03:22:46;31.60;;;19.33;;
19733;SDS011;10018;51.230;7.860;2023-04-29T03:25:11;34.03;;;20.60;;
19733;SDS011;10018;51.230;7.860;2023-04-29T03:27:37;35.80;;;20.50;;
19733;SDS011;10018;51.230;7.860;2023-04-29T03:30:03;35.60;;;21.47;;
19733;SDS011;10018;51.230;7.860;2023-04-29T03:32:32;36.03;;;21.27;;
19733;SDS011;10018;51.230;7.860;2023-04-29T03:34:57;39.20;;;21.50;;
19733;SDS011;10018;51.230;7.860;2023-04-29T03:37:23;38.27;;;22.80;;
19733;SDS011;10018;51.230;7.860;2023-04-29T03:39:48;38.50;;;22.87;;
19733;SDS011;10018;51.230;7.860;2023-04-29T03:42:14;39.60;;;22.50;;
19733;SDS011;10018;51.230;7.860;2023-04-29T03:44:40;37.67;;;21.57;;
19733;SDS011;10018;51.230;7.860;2023-04-29T03:47:05;36.47;;;21.17;;
19733;SDS011;10018;51.230;7.860;2023-04-29T03:49:32;35.90;;;22.07;;
19733;SDS011;10018;51.230;7.860;2023-04-29T03:51:58;38.17;;;21.30;;
19733;SDS011;10018;51.230;7.860;2023-04-29T03:54:24;35.07;;;20.60;;
19733;SDS011;10018;51.230;7.860;2023-04-29T03:56:49;33.27;;;19.63;;
19733;SDS011;10018;51.230;7.860;2023-04-29T03:59:15;32.73;;;19.57;;
19733;SDS011;10018;51.230;7.860;2023-04-29T04:01:40;36.73;;;20.37;;
19733;SDS011;10018;51.230;7.860;2023-04-29T04:04:06;33.60;;;20.07;;
19733;SDS011;10018;51.230;7.860;2023-04-29T04:06:32;35.27;;;20.47;;
19733;SDS011;10018;51.230;7.860;2023-04-29T04:09:00;32.13;;;18.47;;
19733;SDS011;10018;51.230;7.860;2023-04-29T04:11:25;31.70;;;18.40;;
19733;SDS011;10018;51.230;7.860;2023-04-29T04:13:51;30.13;;;17.47;;
19733;SDS011;10018;51.230;7.860;2023-04-29T04:16:16;32.00;;;17.63;;
19733;SDS011;10018;51.230;7.860;2023-04-29T04:18:42;31.43;;;18.33;;
19733;SDS011;10018;51.230;7.860;2023-04-29T04:21:08;23.73;;;13.10;;
19733;SDS011;10018;51.230;7.860;2023-04-29T04:23:34;25.13;;;14.03;;
19733;SDS011;10018;51.230;7.860;2023-04-29T04:26:00;24.03;;;14.23;;
19733;SDS011;10018;51.230;7.860;2023-04-29T04:28:26;25.10;;;13.93;;
19733;SDS011;10018;51.230;7.860;2023-04-29T04:30:53;28.97;;;15.37;;
19733;SDS011;10018;51.230;7.860;2023-04-29T04:33:22;27.60;;;15.00;;
19733;SDS011;10018;51.230;7.860;2023-04-29T04:35:48;28.70;;;15.37;;
19733;SDS011;10018;51.230;7.860;2023-04-29T04:38:14;29.33;;;16.10;;
19733;SDS011;10018;51.230;7.860;2023-04-29T04:40:40;27.23;;;15.70;;
19733;SDS011;10018;51.230;7.860;2023-04-29T04:43:06;27.97;;;15.07;;
19733;SDS011;10018;51.230;7.860;2023-04-29T04:45:32;24.23;;;14.57;;
19733;SDS011;10018;51.230;7.860;2023-04-29T04:48:00;25.60;;;13.90;;
19733;SDS011;10018;51.230;7.860;2023-04-29T04:50:26;25.83;;;13.80;;
19733;SDS011;10018;51.230;7.860;2023-04-29T04:52:53;26.83;;;14.33;;
19733;SDS011;10018;51.230;7.860;2023-04-29T04:55:20;27.17;;;14.30;;
19733;SDS011;10018;51.230;7.860;2023-04-29T05:00:14;24.03;;;13.33;;
19733;SDS011;10018;51.230;7.860;2023-04-29T05:02:40;23.43;;;13.80;;
19733;SDS011;10018;51.230;7.860;2023-04-29T05:05:06;25.13;;;13.63;;
19733;SDS011;10018;51.230;7.860;2023-04-29T05:07:32;24.40;;;14.07;;
19733;SDS011;10018;51.230;7.860;2023-04-29T05:10:00;23.53;;;13.80;;
19733;SDS011;10018;51.230;7.860;2023-04-29T05:12:27;27.00;;;13.87;;
19733;SDS011;10018;51.230;7.860;2023-04-29T05:14:55;24.20;;;13.67;;
19733;SDS011;10018;51.230;7.860;2023-04-29T05:17:20;24.77;;;13.80;;
19733;SDS011;10018;51.230;7.860;2023-04-29T05:19:46;23.20;;;13.90;;
19733;SDS011;10018;51.230;7.860;2023-04-29T05:22:12;22.03;;;13.50;;
19733;SDS011;10018;51.230;7.860;2023-04-29T05:24:37;23.37;;;12.90;;
19733;SDS011;10018;51.230;7.860;2023-04-29T05:27:03;23.07;;;13.33;;
19733;SDS011;10018;51.230;7.860;2023-04-29T05:29:28;22.77;;;13.20;;
19733;SDS011;10018;51.230;7.860;2023-04-29T05:31:55;23.30;;;13.57;;
19733;SDS011;10018;51.230;7.860;2023-04-29T05:34:20;21.70;;;13.03;;
19733;SDS011;10018;51.230;7.860;2023-04-29T05:36:46;23.10;;;13.70;;
19733;SDS011;10018;51.230;7.860;2023-04-29T05:39:11;25.23;;;14.00;;
19733;SDS011;10018;51.230;7.860;2023-04-29T05:41:37;24.20;;;14.07;;
19733;SDS011;10018;51.230;7.860;2023-04-29T05:44:02;23.40;;;13.67;;
19733;SDS011;10018;51.230;7.860;2023-04-29T05:46:28;23.77;;;14.03;;
19733;SDS011;10018;51.230;7.860;2023-04-29T05:48:54;24.27;;;13.17;;
19733;SDS011;10018;51.230;7.860;2023-04-29T05:51:19;22.57;;;13.07;;
19733;SDS011;10018;51.230;7.860;2023-04-29T05:53:45;23.17;;;12.97;;
19733;SDS011;10018;51.230;7.860;2023-04-29T05:56:10;22.37;;;12.53;;
19733;SDS011;10018;51.230;7.860;2023-04-29T05:58:36;22.87;;;13.30;;
19733;SDS011;10018;51.230;7.860;2023-04-29T06:01:02;22.77;;;14.23;;
19733;SDS011;10018;51.230;7.860;2023-04-29T06:03:27;21.77;;;12.93;;
19733;SDS011;10018;51.230;7.860;2023-04-29T06:05:53;22.87;;;13.20;;
19733;SDS011;10018;51.230;7.860;2023-04-29T06:08:19;23.67;;;13.97;;
19733;SDS011;10018;51.230;7.860;2023-04-29T06:10:45;21.77;;;13.00;;
19733;SDS011;10018;51.230;7.860;2023-04-29T06:13:11;22.23;;;13.60;;
19733;SDS011;10018;51.230;7.860;2023-04-29T06:15:36;24.50;;;14.20;;
19733;SDS011;10018;51.230;7.860;2023-04-29T06:18:02;24.87;;;13.80;;
19733;SDS011;10018;51.230;7.860;2023-04-29T06:20:28;24.57;;;13.87;;
19733;SDS011;10018;51.230;7.860;2023-04-29T06:22:53;22.03;;;13.40;;
19733;SDS011;10018;51.230;7.860;2023-04-29T06:25:21;24.23;;;13.50;;
19733;SDS011;10018;51.230;7.860;2023-04-29T06:27:47;25.80;;;14.40;;
19733;SDS011;10018;51.230;7.860;2023-04-29T06:30:13;22.90;;;13.70;;
19733;SDS011;10018;51.230;7.860;2023-04-29T06:32:41;25.90;;;14.53;;
19733;SDS011;10018;51.230;7.860;2023-04-29T06:35:07;27.07;;;14.80;;
19733;SDS011;10018;51.230;7.860;2023-04-29T06:37:32;22.90;;;13.87;;
19733;SDS011;10018;51.230;7.860;2023-04-29T06:39:58;25.57;;;14.50;;
19733;SDS011;10018;51.230;7.860;2023-04-29T06:42:23;30.87;;;15.23;;
19733;SDS011;10018;51.230;7.860;2023-04-29T06:44:49;31.43;;;15.77;;
19733;SDS011;10018;51.230;7.860;2023-04-29T06:47:15;35.07;;;17.30;;
19733;SDS011;10018;51.230;7.860;2023-04-29T06:49:41;34.87;;;17.03;;
19733;SDS011;10018;51.230;7.860;2023-04-29T06:52:07;37.00;;;18.50;;
19733;SDS011;10018;51.230;7.860;2023-04-29T06:54:33;35.13;;;17.83;;
19733;SDS011;10018;51.230;7.860;2023-04-29T06:57:01;39.23;;;19.23;;
19733;SDS011;10018;51.230;7.860;2023-04-29T06:59:27;37.47;;;19.27;;
19733;SDS011;10018;51.230;7.860;2023-04-29T07:01:52;38.03;;;19.37;;
19733;SDS011;10018;51.230;7.860;2023-04-29T07:04:18;36.63;;;19.50;;
19733;SDS011;10018;51.230;7.860;2023-04-29T07:06:43;34.13;;;19.83;;
19733;SDS011;10018;51.230;7.860;2023-04-29T07:09:11;40.57;;;21.03;;
19733;SDS011;10018;51.230;7.860;2023-04-29T07:11:38;43.20;;;22.67;;
19733;SDS011;10018;51.230;7.860;2023-04-29T07:14:03;38.93;;;21.80;;
19733;SDS011;10018;51.230;7.860;2023-04-29T07:16:29;39.47;;;22.27;;
19733;SDS011;10018;51.230;7.860;2023-04-29T07:18:55;41.07;;;21.97;;
19733;SDS011;10018;51.230;7.860;2023-04-29T07:21:20;39.63;;;21.47;;
19733;SDS011;10018;51.230;7.860;2023-04-29T07:23:49;37.70;;;21.97;;
19733;SDS011;10018;51.230;7.860;2023-04-29T07:26:15;36.00;;;20.97;;
19733;SDS011;10018;51.230;7.860;2023-04-29T07:28:44;35.20;;;19.70;;
19733;SDS011;10018;51.230;7.860;2023-04-29T07:31:09;32.73;;;19.50;;
19733;SDS011;10018;51.230;7.860;2023-04-29T07:33:38;33.80;;;20.60;;
19733;SDS011;10018;51.230;7.860;2023-04-29T07:36:09;33.93;;;19.00;;
19733;SDS011;10018;51.230;7.860;2023-04-29T07:38:35;32.00;;;18.83;;
19733;SDS011;10018;51.230;7.860;2023-04-29T07:41:00;33.23;;;19.03;;
19733;SDS011;10018;51.230;7.860;2023-04-29T07:43:28;30.27;;;18.37;;
19733;SDS011;10018;51.230;7.860;2023-04-29T07:45:54;30.97;;;18.20;;
19733;SDS011;10018;51.230;7.860;2023-04-29T07:48:19;32.00;;;18.50;;
19733;SDS011;10018;51.230;7.860;2023-04-29T07:50:45;26.93;;;16.93;;
19733;SDS011;10018;51.230;7.860;2023-04-29T07:53:16;27.47;;;16.87;;
19733;SDS011;10018;51.230;7.860;2023-04-29T07:55:43;25.43;;;15.30;;
19733;SDS011;10018;51.230;7.860;2023-04-29T07:58:09;24.57;;;15.70;;
19733;SDS011;10018;51.230;7.860;2023-04-29T08:00:34;24.63;;;15.00;;
19733;SDS011;10018;51.230;7.860;2023-04-29T08:03:02;25.53;;;15.87;;
19733;SDS011;10018;51.230;7.860;2023-04-29T08:05:28;26.73;;;16.27;;
19733;SDS011;10018;51.230;7.860;2023-04-29T08:07:54;27.07;;;16.60;;
19733;SDS011;10018;51.230;7.860;2023-04-29T08:10:20;31.07;;;16.57;;
19733;SDS011;10018;51.230;7.860;2023-04-29T08:12:46;28.37;;;17.73;;
19733;SDS011;10018;51.230;7.860;2023-04-29T08:15:15;29.27;;;18.10;;
19733;SDS011;10018;51.230;7.860;2023-04-29T08:17:42;29.67;;;16.53;;
19733;SDS011;10018;51.230;7.860;2023-04-29T08:20:08;30.80;;;18.03;;
19733;SDS011;10018;51.230;7.860;2023-04-29T08:22:34;35.97;;;18.10;;
19733;SDS011;10018;51.230;7.860;2023-04-29T08:25:00;34.03;;;18.73;;
19733;SDS011;10018;51.230;7.860;2023-04-29T08:27:27;30.13;;;18.43;;
19733;SDS011;10018;51.230;7.860;2023-04-29T08:29:52;31.00;;;18.70;;
19733;SDS011;10018;51.230;7.860;2023-04-29T08:32:18;35.60;;;20.53;;
19733;SDS011;10018;51.230;7.860;2023-04-29T08:34:46;31.60;;;18.27;;
19733;SDS011;10018;51.230;7.860;2023-04-29T08:37:12;29.77;;;18.20;;
19733;SDS011;10018;51.230;7.860;2023-04-29T08:39:37;30.27;;;18.43;;
19733;SDS011;10018;51.230;7.860;2023-04-29T08:42:07;32.20;;;19.03;;
19733;SDS011;10018;51.230;7.860;2023-04-29T08:44:34;36.50;;;19.43;;
19733;SDS011;10018;51.230;7.860;2023-04-29T08:47:00;32.43;;;20.17;;
19733;SDS011;10018;51.230;7.860;2023-04-29T08:49:27;35.10;;;20.00;;
19733;SDS011;10018;51.230;7.860;2023-04-29T08:51:53;31.70;;;19.33;;
19733;SDS011;10018;51.230;7.860;2023-04-29T08:54:19;31.60;;;19.13;;
19733;SDS011;10018;51.230;7.860;2023-04-29T08:56:45;30.53;;;18.13;;
19733;SDS011;10018;51.230;7.860;2023-04-29T08:59:14;30.67;;;18.80;;
19733;SDS011;10018;51.230;7.860;2023-04-29T09:01:41;30.87;;;18.93;;
19733;SDS011;10018;51.230;7.860;2023-04-29T09:04:09;28.70;;;17.80;;
19733;SDS011;10018;51.230;7.860;2023-04-29T09:06:44;28.77;;;18.73;;
19733;SDS011;10018;51.230;7.860;2023-04-29T09:09:10;33.67;;;18.17;;
19733;SDS011;10018;51.230;7.860;2023-04-29T09:11:38;27.57;;;17.33;;
19733;SDS011;10018;51.230;7.860;2023-04-29T09:14:04;30.87;;;16.57;;
19733;SDS011;10018;51.230;7.860;2023-04-29T09:16:32;27.47;;;16.47;;
19733;SDS011;10018;51.230;7.860;2023-04-29T09:19:02;26.23;;;16.40;;
19733;SDS011;10018;51.230;7.860;2023-04-29T09:21:28;24.93;;;15.87;;
19733;SDS011;10018;51.230;7.860;2023-04-29T09:23:57;25.07;;;15.60;;
19733;SDS011;10018;51.230;7.860;2023-04-29T09:26:24;27.23;;;15.83;;
19733;SDS011;10018;51.230;7.860;2023-04-29T09:31:41;24.90;;;14.90;;
19733;SDS011;10018;51.230;7.860;2023-04-29T09:34:09;20.80;;;12.97;;
19733;SDS011;10018;51.230;7.860;2023-04-29T09:39:08;22.43;;;13.53;;
19733;SDS011;10018;51.230;7.860;2023-04-29T09:41:38;22.07;;;13.70;;
19733;SDS011;10018;51.230;7.860;2023-04-29T09:44:07;20.00;;;13.13;;
19733;SDS011;10018;51.230;7.860;2023-04-29T09:46:34;23.40;;;13.70;;
19733;SDS011;10018;51.230;7.860;2023-04-29T09:49:02;21.53;;;13.87;;
19733;SDS011;10018;51.230;7.860;2023-04-29T09:51:30;26.83;;;15.20;;
19733;SDS011;10018;51.230;7.860;2023-04-29T09:53:57;27.77;;;16.93;;
19733;SDS011;10018;51.230;7.860;2023-04-29T09:56:47;31.37;;;17.43;;
19733;SDS011;10018;51.230;7.860;2023-04-29T09:59:14;29.50;;;17.50;;
19733;SDS011;10018;51.230;7.860;2023-04-29T10:01:40;26.77;;;16.93;;
19733;SDS011;10018;51.230;7.860;2023-04-29T10:04:09;30.53;;;18.47;;
19733;SDS011;10018;51.230;7.860;2023-04-29T10:06:37;32.17;;;18.93;;
19733;SDS011;10018;51.230;7.860;2023-04-29T10:09:05;30.37;;;18.00;;
19733;SDS011;10018;51.230;7.860;2023-04-29T10:11:32;31.53;;;18.93;;
19733;SDS011;10018;51.230;7.860;2023-04-29T10:13:59;33.10;;;18.30;;
19733;SDS011;10018;51.230;7.860;2023-04-29T10:16:27;32.77;;;18.67;;
19733;SDS011;10018;51.230;7.860;2023-04-29T10:18:54;31.10;;;18.80;;
19733;SDS011;10018;51.230;7.860;2023-04-29T10:21:26;32.20;;;20.10;;
19733;SDS011;10018;51.230;7.860;2023-04-29T10:23:54;34.53;;;20.10;;
19733;SDS011;10018;51.230;7.860;2023-04-29T10:26:21;33.67;;;18.60;;
19733;SDS011;10018;51.230;7.860;2023-04-29T10:28:55;37.87;;;20.70;;
19733;SDS011;10018;51.230;7.860;2023-04-29T10:31:27;37.47;;;21.30;;
19733;SDS011;10018;51.230;7.860;2023-04-29T10:33:57;36.07;;;21.13;;
19733;SDS011;10018;51.230;7.860;2023-04-29T10:36:27;36.63;;;20.80;;
19733;SDS011;10018;51.230;7.860;2023-04-29T10:38:56;35.13;;;21.00;;
19733;SDS011;10018;51.230;7.860;2023-04-29T10:41:25;37.20;;;21.43;;
19733;SDS011;10018;51.230;7.860;2023-04-29T10:43:57;36.53;;;21.43;;
19733;SDS011;10018;51.230;7.860;2023-04-29T10:46:26;34.97;;;20.97;;
19733;SDS011;10018;51.230;7.860;2023-04-29T10:48:56;34.90;;;21.13;;
19733;SDS011;10018;51.230;7.860;2023-04-29T10:51:34;34.70;;;21.63;;
19733;SDS011;10018;51.230;7.860;2023-04-29T10:54:16;34.80;;;21.23;;
19733;SDS011;10018;51.230;7.860;2023-04-29T10:56:50;34.43;;;21.20;;
19733;SDS011;10018;51.230;7.860;2023-04-29T11:01:50;36.03;;;21.27;;
19733;SDS011;10018;51.230;7.860;2023-04-29T11:04:17;38.87;;;21.63;;
19733;SDS011;10018;51.230;7.860;2023-04-29T11:06:55;37.60;;;22.23;;
19733;SDS011;10018;51.230;7.860;2023-04-29T11:17:04;38.70;;;21.73;;
19733;SDS011;10018;51.230;7.860;2023-04-29T11:19:36;40.00;;;22.57;;
19733;SDS011;10018;51.230;7.860;2023-04-29T11:24:57;38.37;;;22.17;;
19733;SDS011;10018;51.230;7.860;2023-04-29T11:27:26;35.70;;;21.27;;
19733;SDS011;10018;51.230;7.860;2023-04-29T11:29:55;38.43;;;22.10;;
19733;SDS011;10018;51.230;7.860;2023-04-29T11:32:28;36.93;;;22.60;;
19733;SDS011;10018;51.230;7.860;2023-04-29T11:34:55;33.33;;;22.00;;
19733;SDS011;10018;51.230;7.860;2023-04-29T11:37:36;37.27;;;22.73;;
19733;SDS011;10018;51.230;7.860;2023-04-29T11:40:01;35.30;;;22.43;;
19733;SDS011;10018;51.230;7.860;2023-04-29T11:42:27;37.70;;;22.77;;
19733;SDS011;10018;51.230;7.860;2023-04-29T11:44:53;35.27;;;22.33;;
19733;SDS011;10018;51.230;7.860;2023-04-29T11:47:24;37.13;;;22.33;;
19733;SDS011;10018;51.230;7.860;2023-04-29T11:49:51;36.27;;;22.10;;
19733;SDS011;10018;51.230;7.860;2023-04-29T11:52:17;35.67;;;22.43;;
19733;SDS011;10018;51.230;7.860;2023-04-29T11:54:43;36.47;;;22.13;;
19733;SDS011;10018;51.230;7.860;2023-04-29T11:57:09;37.63;;;22.20;;
19733;SDS011;10018;51.230;7.860;2023-04-29T11:59:35;37.40;;;23.07;;
19733;SDS011;10018;51.230;7.860;2023-04-29T12:02:00;39.33;;;23.20;;
19733;SDS011;10018;51.230;7.860;2023-04-29T12:04:26;38.97;;;24.03;;
19733;SDS011;10018;51.230;7.860;2023-04-29T12:06:51;39.47;;;23.40;;
19733;SDS011;10018;51.230;7.860;2023-04-29T12:09:17;37.27;;;24.23;;
19733;SDS011;10018;51.230;7.860;2023-04-29T12:11:43;35.47;;;22.53;;
19733;SDS011;10018;51.230;7.860;2023-04-29T12:14:11;38.30;;;24.70;;
19733;SDS011;10018;51.230;7.860;2023-04-29T12:16:37;36.07;;;22.27;;
19733;SDS011;10018;51.230;7.860;2023-04-29T12:19:03;39.23;;;25.10;;
19733;SDS011;10018;51.230;7.860;2023-04-29T12:21:29;38.87;;;24.17;;
19733;SDS011;10018;51.230;7.860;2023-04-29T12:23:57;39.63;;;25.47;;
19733;SDS011;10018;51.230;7.860;2023-04-29T12:26:26;39.83;;;25.37;;
19733;SDS011;10018;51.230;7.860;2023-04-29T12:28:53;37.77;;;25.10;;
19733;SDS011;10018;51.230;7.860;2023-04-29T12:31:19;38.57;;;24.37;;
19733;SDS011;10018;51.230;7.860;2023-04-29T12:33:45;38.77;;;25.90;;
19733;SDS011;10018;51.230;7.860;2023-04-29T12:36:17;39.17;;;25.00;;
19733;SDS011;10018;51.230;7.860;2023-04-29T12:38:43;38.63;;;25.50;;
19733;SDS011;10018;51.230;7.860;2023-04-29T12:41:11;40.50;;;26.47;;
19733;SDS011;10018;51.230;7.860;2023-04-29T12:43:41;38.70;;;25.77;;
19733;SDS011;10018;51.230;7.860;2023-04-29T12:46:07;39.63;;;25.67;;
19733;SDS011;10018;51.230;7.860;2023-04-29T12:48:39;37.20;;;24.83;;
19733;SDS011;10018;51.230;7.860;2023-04-29T12:51:07;40.83;;;25.90;;
19733;SDS011;10018;51.230;7.860;2023-04-29T12:53:34;36.53;;;25.40;;
19733;SDS011;10018;51.230;7.860;2023-04-29T12:55:59;39.77;;;25.00;;
19733;SDS011;10018;51.230;7.860;2023-04-29T12:58:29;37.83;;;24.43;;
19733;SDS011;10018;51.230;7.860;2023-04-29T13:00:55;35.83;;;25.23;;
19733;SDS011;10018;51.230;7.860;2023-04-29T13:03:21;34.83;;;23.23;;
19733;SDS011;10018;51.230;7.860;2023-04-29T13:05:47;36.37;;;23.60;;
19733;SDS011;10018;51.230;7.860;2023-04-29T13:08:16;36.30;;;24.57;;
19733;SDS011;10018;51.230;7.860;2023-04-29T13:10:42;38.93;;;24.97;;
19733;SDS011;10018;51.230;7.860;2023-04-29T13:13:07;38.63;;;24.83;;
19733;SDS011;10018;51.230;7.860;2023-04-29T13:15:36;40.70;;;25.40;;
19733;SDS011;10018;51.230;7.860;2023-04-29T13:18:07;36.27;;;24.43;;
19733;SDS011;10018;51.230;7.860;2023-04-29T13:20:33;35.63;;;25.07;;
19733;SDS011;10018;51.230;7.860;2023-04-29T13:22:59;36.80;;;25.37;;
19733;SDS011;10018;51.230;7.860;2023-04-29T13:25:25;41.00;;;24.67;;
19733;SDS011;10018;51.230;7.860;2023-04-29T13:27:50;38.77;;;25.60;;
19733;SDS011;10018;51.230;7.860;2023-04-29T13:30:16;36.80;;;24.27;;
19733;SDS011;10018;51.230;7.860;2023-04-29T13:32:41;36.50;;;24.30;;
19733;SDS011;10018;51.230;7.860;2023-04-29T13:35:08;34.33;;;23.93;;
19733;SDS011;10018;51.230;7.860;2023-04-29T13:37:34;37.60;;;25.23;;
19733;SDS011;10018;51.230;7.860;2023-04-29T13:39:59;34.40;;;23.63;;
19733;SDS011;10018;51.230;7.860;2023-04-29T13:42:25;37.27;;;26.50;;
19733;SDS011;10018;51.230;7.860;2023-04-29T13:44:51;33.87;;;23.93;;
19733;SDS011;10018;51.230;7.860;2023-04-29T13:47:17;36.10;;;24.40;;
19733;SDS011;10018;51.230;7.860;2023-04-29T13:49:43;32.97;;;23.83;;
19733;SDS011;10018;51.230;7.860;2023-04-29T13:52:09;33.87;;;24.07;;
19733;SDS011;10018;51.230;7.860;2023-04-29T13:54:35;33.13;;;24.03;;
19733;SDS011;10018;51.230;7.860;2023-04-29T13:57:02;31.07;;;22.23;;
19733;SDS011;10018;51.230;7.860;2023-04-29T13:59:28;31.43;;;23.10;;
19733;SDS011;10018;51.230;7.860;2023-04-29T14:01:57;32.00;;;22.17;;
19733;SDS011;10018;51.230;7.860;2023-04-29T14:04:26;32.20;;;22.07;;
19733;SDS011;10018;51.230;7.860;2023-04-29T14:06:53;29.50;;;20.87;;
19733;SDS011;10018;51.230;7.860;2023-04-29T14:09:19;28.33;;;20.17;;
19733;SDS011;10018;51.230;7.860;2023-04-29T14:11:45;27.70;;;20.10;;
19733;SDS011;10018;51.230;7.860;2023-04-29T14:14:12;26.33;;;20.03;;
19733;SDS011;10018;51.230;7.860;2023-04-29T14:16:38;28.40;;;20.40;;
19733;SDS011;10018;51.230;7.860;2023-04-29T14:19:03;28.73;;;20.47;;
19733;SDS011;10018;51.230;7.860;2023-04-29T14:21:29;27.03;;;19.23;;
19733;SDS011;10018;51.230;7.860;2023-04-29T14:23:57;26.03;;;19.33;;
19733;SDS011;10018;51.230;7.860;2023-04-29T14:26:23;28.80;;;18.17;;
19733;SDS011;10018;51.230;7.860;2023-04-29T14:28:55;33.23;;;21.00;;
19733;SDS011;10018;51.230;7.860;2023-04-29T14:31:32;28.97;;;19.40;;
19733;SDS011;10018;51.230;7.860;2023-04-29T14:34:02;29.93;;;20.70;;
19733;SDS011;10018;51.230;7.860;2023-04-29T14:36:30;28.77;;;20.73;;
19733;SDS011;10018;51.230;7.860;2023-04-29T14:38:59;32.30;;;20.60;;
19733;SDS011;10018;51.230;7.860;2023-04-29T14:41:25;29.47;;;21.17;;
19733;SDS011;10018;51.230;7.860;2023-04-29T14:43:51;30.07;;;21.77;;
19733;SDS011;10018;51.230;7.860;2023-04-29T14:46:20;29.33;;;21.73;;
19733;SDS011;10018;51.230;7.860;2023-04-29T14:48:49;33.83;;;21.27;;
19733;SDS011;10018;51.230;7.860;2023-04-29T14:51:14;28.27;;;20.63;;
19733;SDS011;10018;51.230;7.860;2023-04-29T14:53:40;31.43;;;21.87;;